sensor_id;sensor_type;location;lat;lon;timestamp;P1;durP1;ratioP1;P2;durP2;ratioP2
32874;SDS011;40468;42.128;24.750;2022-11-13T00:00:00;8.88;;;5.03;;
32874;SDS011;40468;42.128;24.750;2022-11-13T00:01:31;11.40;;;4.95;;
32874;SDS011;40468;42.128;24.750;2022-11-13T00:03:03;9.82;;;5.40;;
32874;SDS011;40468;42.128;24.750;2022-11-13T00:04:35;9.82;;;4.75;;
32874;SDS011;40468;42.128;24.750;2022-11-13T00:06:08;8.63;;;5.03;;
32874;SDS011;40468;42.128;24.750;2022-11-13T00:07:39;9.07;;;4.50;;
32874;SDS011;40468;42.128;24.750;2022-11-13T00:09:11;8.70;;;5.03;;
32874;SDS011;40468;42.128;24.750;2022-11-13T00:10:43;10.13;;;5.13;;
32874;SDS011;40468;42.128;24.750;2022-11-13T00:12:13;8.77;;;5.00;;
32874;SDS011;40468;42.128;24.750;2022-11-13T00:13:47;9.57;;;5.00;;
32874;SDS011;40468;42.128;24.750;2022-11-13T00:15:19;10.02;;;5.55;;
32874;SDS011;40468;42.128;24.750;2022-11-13T00:16:51;8.95;;;5.65;;
32874;SDS011;40468;42.128;24.750;2022-11-13T00:18:23;9.23;;;5.45;;
32874;SDS011;40468;42.128;24.750;2022-11-13T00:19:55;8.95;;;5.30;;
32874;SDS011;40468;42.128;24.750;2022-11-13T00:21:26;10.23;;;5.93;;
32874;SDS011;40468;42.128;24.750;2022-11-13T00:22:58;8.32;;;4.85;;
32874;SDS011;40468;42.128;24.750;2022-11-13T00:24:28;10.23;;;5.72;;
32874;SDS011;40468;42.128;24.750;2022-11-13T00:26:07;8.73;;;4.75;;
32874;SDS011;40468;42.128;24.750;2022-11-13T00:27:40;9.57;;;5.57;;
32874;SDS011;40468;42.128;24.750;2022-11-13T00:29:13;8.25;;;5.22;;
32874;SDS011;40468;42.128;24.750;2022-11-13T00:30:45;9.15;;;5.13;;
32874;SDS011;40468;42.128;24.750;2022-11-13T00:32:17;9.77;;;4.85;;
32874;SDS011;40468;42.128;24.750;2022-11-13T00:33:49;8.70;;;5.68;;
32874;SDS011;40468;42.128;24.750;2022-11-13T00:35:21;11.38;;;5.80;;
32874;SDS011;40468;42.128;24.750;2022-11-13T00:36:53;9.00;;;4.97;;
32874;SDS011;40468;42.128;24.750;2022-11-13T00:38:24;8.98;;;5.13;;
32874;SDS011;40468;42.128;24.750;2022-11-13T00:39:56;9.05;;;5.47;;
32874;SDS011;40468;42.128;24.750;2022-11-13T00:41:27;8.30;;;4.75;;
32874;SDS011;40468;42.128;24.750;2022-11-13T00:42:59;8.70;;;5.28;;
32874;SDS011;40468;42.128;24.750;2022-11-13T00:44:32;13.10;;;5.72;;
32874;SDS011;40468;42.128;24.750;2022-11-13T00:46:05;9.50;;;4.65;;
32874;SDS011;40468;42.128;24.750;2022-11-13T00:47:37;8.38;;;4.70;;
32874;SDS011;40468;42.128;24.750;2022-11-13T00:49:09;8.85;;;5.53;;
32874;SDS011;40468;42.128;24.750;2022-11-13T00:50:42;9.98;;;5.28;;
32874;SDS011;40468;42.128;24.750;2022-11-13T00:52:13;8.15;;;4.97;;
32874;SDS011;40468;42.128;24.750;2022-11-13T00:53:45;7.85;;;4.70;;
32874;SDS011;40468;42.128;24.750;2022-11-13T00:55:17;8.32;;;4.95;;
32874;SDS011;40468;42.128;24.750;2022-11-13T00:56:48;8.23;;;5.00;;
32874;SDS011;40468;42.128;24.750;2022-11-13T00:58:20;11.30;;;5.57;;
32874;SDS011;40468;42.128;24.750;2022-11-13T00:59:53;11.25;;;6.20;;
32874;SDS011;40468;42.128;24.750;2022-11-13T01:01:25;8.23;;;5.18;;
32874;SDS011;40468;42.128;24.750;2022-11-13T01:02:57;8.43;;;5.38;;
32874;SDS011;40468;42.128;24.750;2022-11-13T01:04:29;12.85;;;5.68;;
32874;SDS011;40468;42.128;24.750;2022-11-13T01:06:07;11.00;;;6.03;;
32874;SDS011;40468;42.128;24.750;2022-11-13T01:07:40;10.35;;;5.63;;
32874;SDS011;40468;42.128;24.750;2022-11-13T01:09:11;12.10;;;5.95;;
32874;SDS011;40468;42.128;24.750;2022-11-13T01:10:44;11.93;;;6.18;;
32874;SDS011;40468;42.128;24.750;2022-11-13T01:12:17;9.15;;;5.82;;
32874;SDS011;40468;42.128;24.750;2022-11-13T01:13:49;10.23;;;6.55;;
32874;SDS011;40468;42.128;24.750;2022-11-13T01:15:24;9.82;;;5.93;;
32874;SDS011;40468;42.128;24.750;2022-11-13T01:16:55;11.02;;;5.97;;
32874;SDS011;40468;42.128;24.750;2022-11-13T01:18:27;11.88;;;6.40;;
32874;SDS011;40468;42.128;24.750;2022-11-13T01:19:59;12.43;;;6.93;;
32874;SDS011;40468;42.128;24.750;2022-11-13T01:21:31;11.07;;;6.25;;
32874;SDS011;40468;42.128;24.750;2022-11-13T01:23:03;13.68;;;7.43;;
32874;SDS011;40468;42.128;24.750;2022-11-13T01:24:34;10.77;;;5.68;;
32874;SDS011;40468;42.128;24.750;2022-11-13T01:26:07;11.18;;;6.03;;
32874;SDS011;40468;42.128;24.750;2022-11-13T01:27:40;10.25;;;6.30;;
32874;SDS011;40468;42.128;24.750;2022-11-13T01:29:12;9.57;;;6.18;;
32874;SDS011;40468;42.128;24.750;2022-11-13T01:30:44;10.45;;;6.88;;
32874;SDS011;40468;42.128;24.750;2022-11-13T01:32:16;10.88;;;6.90;;
32874;SDS011;40468;42.128;24.750;2022-11-13T01:33:48;10.05;;;6.28;;
32874;SDS011;40468;42.128;24.750;2022-11-13T01:35:20;10.32;;;6.53;;
32874;SDS011;40468;42.128;24.750;2022-11-13T01:36:51;10.02;;;6.18;;
32874;SDS011;40468;42.128;24.750;2022-11-13T01:38:23;10.80;;;6.30;;
32874;SDS011;40468;42.128;24.750;2022-11-13T01:39:55;13.93;;;6.10;;
32874;SDS011;40468;42.128;24.750;2022-11-13T01:41:28;11.38;;;6.35;;
32874;SDS011;40468;42.128;24.750;2022-11-13T01:43:10;12.48;;;7.10;;
32874;SDS011;40468;42.128;24.750;2022-11-13T01:44:51;10.05;;;6.18;;
32874;SDS011;40468;42.128;24.750;2022-11-13T01:46:26;10.23;;;6.00;;
32874;SDS011;40468;42.128;24.750;2022-11-13T01:48:00;11.73;;;6.10;;
32874;SDS011;40468;42.128;24.750;2022-11-13T01:49:32;12.85;;;6.38;;
32874;SDS011;40468;42.128;24.750;2022-11-13T01:51:08;11.10;;;6.10;;
32874;SDS011;40468;42.128;24.750;2022-11-13T01:52:42;16.30;;;7.40;;
32874;SDS011;40468;42.128;24.750;2022-11-13T01:54:15;10.10;;;5.90;;
32874;SDS011;40468;42.128;24.750;2022-11-13T01:55:48;12.48;;;6.53;;
32874;SDS011;40468;42.128;24.750;2022-11-13T01:57:20;10.93;;;6.38;;
32874;SDS011;40468;42.128;24.750;2022-11-13T01:58:56;11.77;;;5.93;;
32874;SDS011;40468;42.128;24.750;2022-11-13T02:00:32;11.65;;;6.07;;
32874;SDS011;40468;42.128;24.750;2022-11-13T02:02:06;12.13;;;6.87;;
32874;SDS011;40468;42.128;24.750;2022-11-13T02:03:38;11.90;;;6.15;;
32874;SDS011;40468;42.128;24.750;2022-11-13T02:05:09;11.95;;;5.97;;
32874;SDS011;40468;42.128;24.750;2022-11-13T02:06:42;15.10;;;6.35;;
32874;SDS011;40468;42.128;24.750;2022-11-13T02:08:18;14.93;;;6.78;;
32874;SDS011;40468;42.128;24.750;2022-11-13T02:09:51;12.73;;;6.50;;
32874;SDS011;40468;42.128;24.750;2022-11-13T02:11:25;14.38;;;6.78;;
32874;SDS011;40468;42.128;24.750;2022-11-13T02:12:56;9.35;;;5.68;;
32874;SDS011;40468;42.128;24.750;2022-11-13T02:14:28;11.80;;;6.55;;
32874;SDS011;40468;42.128;24.750;2022-11-13T02:16:01;9.95;;;5.88;;
32874;SDS011;40468;42.128;24.750;2022-11-13T02:17:37;11.10;;;6.38;;
32874;SDS011;40468;42.128;24.750;2022-11-13T02:19:16;10.50;;;6.18;;
32874;SDS011;40468;42.128;24.750;2022-11-13T02:20:54;13.45;;;5.47;;
32874;SDS011;40468;42.128;24.750;2022-11-13T02:22:34;16.52;;;6.47;;
32874;SDS011;40468;42.128;24.750;2022-11-13T02:24:14;14.80;;;6.85;;
32874;SDS011;40468;42.128;24.750;2022-11-13T02:25:52;13.82;;;7.43;;
32874;SDS011;40468;42.128;24.750;2022-11-13T02:27:25;14.13;;;6.85;;
32874;SDS011;40468;42.128;24.750;2022-11-13T02:29:01;11.40;;;6.45;;
32874;SDS011;40468;42.128;24.750;2022-11-13T02:30:33;12.68;;;6.20;;
32874;SDS011;40468;42.128;24.750;2022-11-13T02:32:07;12.32;;;6.13;;
32874;SDS011;40468;42.128;24.750;2022-11-13T02:33:39;10.70;;;6.40;;
32874;SDS011;40468;42.128;24.750;2022-11-13T02:35:10;12.38;;;6.43;;
32874;SDS011;40468;42.128;24.750;2022-11-13T02:36:43;10.48;;;6.18;;
32874;SDS011;40468;42.128;24.750;2022-11-13T02:38:15;10.93;;;6.75;;
32874;SDS011;40468;42.128;24.750;2022-11-13T02:39:49;10.05;;;5.82;;
32874;SDS011;40468;42.128;24.750;2022-11-13T02:41:20;13.50;;;6.93;;
32874;SDS011;40468;42.128;24.750;2022-11-13T02:42:52;10.57;;;6.25;;
32874;SDS011;40468;42.128;24.750;2022-11-13T02:44:24;10.02;;;5.55;;
32874;SDS011;40468;42.128;24.750;2022-11-13T02:45:56;11.18;;;5.60;;
32874;SDS011;40468;42.128;24.750;2022-11-13T02:47:27;12.43;;;6.32;;
32874;SDS011;40468;42.128;24.750;2022-11-13T02:48:59;11.07;;;6.25;;
32874;SDS011;40468;42.128;24.750;2022-11-13T02:50:32;12.32;;;6.88;;
32874;SDS011;40468;42.128;24.750;2022-11-13T02:52:04;12.10;;;6.43;;
32874;SDS011;40468;42.128;24.750;2022-11-13T02:53:37;14.43;;;6.22;;
32874;SDS011;40468;42.128;24.750;2022-11-13T02:55:09;10.15;;;6.00;;
32874;SDS011;40468;42.128;24.750;2022-11-13T02:56:41;13.23;;;6.55;;
32874;SDS011;40468;42.128;24.750;2022-11-13T02:58:12;12.52;;;6.25;;
32874;SDS011;40468;42.128;24.750;2022-11-13T02:59:44;12.10;;;6.28;;
32874;SDS011;40468;42.128;24.750;2022-11-13T03:01:16;14.43;;;6.68;;
32874;SDS011;40468;42.128;24.750;2022-11-13T03:02:47;11.65;;;6.43;;
32874;SDS011;40468;42.128;24.750;2022-11-13T03:04:19;13.20;;;6.50;;
32874;SDS011;40468;42.128;24.750;2022-11-13T03:05:51;10.38;;;5.93;;
32874;SDS011;40468;42.128;24.750;2022-11-13T03:07:23;11.10;;;6.03;;
32874;SDS011;40468;42.128;24.750;2022-11-13T03:08:55;11.68;;;5.90;;
32874;SDS011;40468;42.128;24.750;2022-11-13T03:10:28;9.63;;;5.75;;
32874;SDS011;40468;42.128;24.750;2022-11-13T03:13:32;10.02;;;5.60;;
32874;SDS011;40468;42.128;24.750;2022-11-13T03:15:04;11.57;;;6.40;;
32874;SDS011;40468;42.128;24.750;2022-11-13T03:16:37;11.18;;;6.47;;
32874;SDS011;40468;42.128;24.750;2022-11-13T03:18:15;11.63;;;6.65;;
32874;SDS011;40468;42.128;24.750;2022-11-13T03:19:45;10.88;;;6.32;;
32874;SDS011;40468;42.128;24.750;2022-11-13T03:21:17;10.93;;;5.97;;
32874;SDS011;40468;42.128;24.750;2022-11-13T03:22:49;10.32;;;6.00;;
32874;SDS011;40468;42.128;24.750;2022-11-13T03:24:21;12.93;;;7.25;;
32874;SDS011;40468;42.128;24.750;2022-11-13T03:25:54;12.20;;;6.22;;
32874;SDS011;40468;42.128;24.750;2022-11-13T03:27:25;14.68;;;6.70;;
32874;SDS011;40468;42.128;24.750;2022-11-13T03:28:57;12.25;;;6.10;;
32874;SDS011;40468;42.128;24.750;2022-11-13T03:30:29;15.00;;;7.10;;
32874;SDS011;40468;42.128;24.750;2022-11-13T03:32:00;12.57;;;6.82;;
32874;SDS011;40468;42.128;24.750;2022-11-13T03:33:32;14.25;;;7.78;;
32874;SDS011;40468;42.128;24.750;2022-11-13T03:35:04;17.50;;;9.73;;
32874;SDS011;40468;42.128;24.750;2022-11-13T03:38:09;12.40;;;6.93;;
32874;SDS011;40468;42.128;24.750;2022-11-13T03:39:41;14.43;;;7.45;;
32874;SDS011;40468;42.128;24.750;2022-11-13T03:41:14;10.88;;;6.75;;
32874;SDS011;40468;42.128;24.750;2022-11-13T03:42:46;12.95;;;6.20;;
32874;SDS011;40468;42.128;24.750;2022-11-13T03:44:18;14.90;;;7.13;;
32874;SDS011;40468;42.128;24.750;2022-11-13T03:45:50;12.88;;;6.95;;
32874;SDS011;40468;42.128;24.750;2022-11-13T03:47:20;14.57;;;7.20;;
32874;SDS011;40468;42.128;24.750;2022-11-13T03:48:52;13.80;;;7.70;;
32874;SDS011;40468;42.128;24.750;2022-11-13T03:50:24;14.63;;;7.75;;
32874;SDS011;40468;42.128;24.750;2022-11-13T03:51:55;17.05;;;8.60;;
32874;SDS011;40468;42.128;24.750;2022-11-13T03:53:27;13.15;;;7.72;;
32874;SDS011;40468;42.128;24.750;2022-11-13T03:54:59;17.45;;;8.07;;
32874;SDS011;40468;42.128;24.750;2022-11-13T03:56:31;13.95;;;7.63;;
32874;SDS011;40468;42.128;24.750;2022-11-13T03:58:03;13.40;;;7.55;;
32874;SDS011;40468;42.128;24.750;2022-11-13T03:59:34;13.73;;;6.95;;
32874;SDS011;40468;42.128;24.750;2022-11-13T04:01:06;12.05;;;6.72;;
32874;SDS011;40468;42.128;24.750;2022-11-13T04:02:38;10.43;;;6.35;;
32874;SDS011;40468;42.128;24.750;2022-11-13T04:04:10;12.77;;;7.38;;
32874;SDS011;40468;42.128;24.750;2022-11-13T04:05:41;14.07;;;7.75;;
32874;SDS011;40468;42.128;24.750;2022-11-13T04:07:13;14.70;;;7.60;;
32874;SDS011;40468;42.128;24.750;2022-11-13T04:08:45;15.95;;;7.68;;
32874;SDS011;40468;42.128;24.750;2022-11-13T04:10:17;12.77;;;7.13;;
32874;SDS011;40468;42.128;24.750;2022-11-13T04:11:51;15.13;;;8.20;;
32874;SDS011;40468;42.128;24.750;2022-11-13T04:13:22;13.65;;;7.20;;
32874;SDS011;40468;42.128;24.750;2022-11-13T04:14:54;14.48;;;8.32;;
32874;SDS011;40468;42.128;24.750;2022-11-13T04:16:25;14.35;;;7.40;;
32874;SDS011;40468;42.128;24.750;2022-11-13T04:17:57;14.52;;;7.97;;
32874;SDS011;40468;42.128;24.750;2022-11-13T04:19:29;12.45;;;7.28;;
32874;SDS011;40468;42.128;24.750;2022-11-13T04:21:01;15.55;;;8.05;;
32874;SDS011;40468;42.128;24.750;2022-11-13T04:24:06;14.20;;;7.57;;
32874;SDS011;40468;42.128;24.750;2022-11-13T04:25:38;13.43;;;7.60;;
32874;SDS011;40468;42.128;24.750;2022-11-13T04:27:10;17.88;;;8.05;;
32874;SDS011;40468;42.128;24.750;2022-11-13T04:28:42;13.60;;;7.82;;
32874;SDS011;40468;42.128;24.750;2022-11-13T04:30:14;15.63;;;8.15;;
32874;SDS011;40468;42.128;24.750;2022-11-13T04:31:45;16.38;;;7.57;;
32874;SDS011;40468;42.128;24.750;2022-11-13T04:33:16;14.40;;;8.02;;
32874;SDS011;40468;42.128;24.750;2022-11-13T04:34:48;14.82;;;8.88;;
32874;SDS011;40468;42.128;24.750;2022-11-13T04:36:20;15.75;;;8.50;;
32874;SDS011;40468;42.128;24.750;2022-11-13T04:37:52;15.02;;;8.40;;
32874;SDS011;40468;42.128;24.750;2022-11-13T04:39:24;18.17;;;8.63;;
32874;SDS011;40468;42.128;24.750;2022-11-13T04:40:56;15.00;;;8.82;;
32874;SDS011;40468;42.128;24.750;2022-11-13T04:42:43;16.25;;;8.15;;
32874;SDS011;40468;42.128;24.750;2022-11-13T04:44:19;13.93;;;7.38;;
32874;SDS011;40468;42.128;24.750;2022-11-13T04:45:51;15.80;;;8.20;;
32874;SDS011;40468;42.128;24.750;2022-11-13T04:47:24;15.90;;;8.25;;
32874;SDS011;40468;42.128;24.750;2022-11-13T04:48:55;15.05;;;7.63;;
32874;SDS011;40468;42.128;24.750;2022-11-13T04:50:26;16.83;;;8.40;;
32874;SDS011;40468;42.128;24.750;2022-11-13T04:51:58;16.33;;;7.95;;
32874;SDS011;40468;42.128;24.750;2022-11-13T04:53:30;13.60;;;7.68;;
32874;SDS011;40468;42.128;24.750;2022-11-13T04:55:01;17.45;;;7.97;;
32874;SDS011;40468;42.128;24.750;2022-11-13T04:56:33;16.40;;;8.00;;
32874;SDS011;40468;42.128;24.750;2022-11-13T04:58:07;16.55;;;8.95;;
32874;SDS011;40468;42.128;24.750;2022-11-13T04:59:38;16.77;;;9.05;;
32874;SDS011;40468;42.128;24.750;2022-11-13T05:01:10;16.50;;;8.70;;
32874;SDS011;40468;42.128;24.750;2022-11-13T05:02:42;18.95;;;9.25;;
32874;SDS011;40468;42.128;24.750;2022-11-13T05:04:13;19.15;;;9.73;;
32874;SDS011;40468;42.128;24.750;2022-11-13T05:05:46;17.48;;;8.82;;
32874;SDS011;40468;42.128;24.750;2022-11-13T05:07:17;14.70;;;8.32;;
32874;SDS011;40468;42.128;24.750;2022-11-13T05:08:49;19.50;;;9.75;;
32874;SDS011;40468;42.128;24.750;2022-11-13T05:10:20;17.10;;;8.40;;
32874;SDS011;40468;42.128;24.750;2022-11-13T05:11:52;15.00;;;8.40;;
32874;SDS011;40468;42.128;24.750;2022-11-13T05:13:26;15.52;;;8.93;;
32874;SDS011;40468;42.128;24.750;2022-11-13T05:15:00;18.60;;;8.75;;
32874;SDS011;40468;42.128;24.750;2022-11-13T05:16:33;17.58;;;8.63;;
32874;SDS011;40468;42.128;24.750;2022-11-13T05:18:06;17.85;;;9.15;;
32874;SDS011;40468;42.128;24.750;2022-11-13T05:19:38;19.52;;;8.93;;
32874;SDS011;40468;42.128;24.750;2022-11-13T05:21:09;19.42;;;8.90;;
32874;SDS011;40468;42.128;24.750;2022-11-13T05:22:41;16.45;;;8.55;;
32874;SDS011;40468;42.128;24.750;2022-11-13T05:24:13;17.52;;;8.50;;
32874;SDS011;40468;42.128;24.750;2022-11-13T05:25:45;16.35;;;7.95;;
32874;SDS011;40468;42.128;24.750;2022-11-13T05:27:17;18.13;;;9.30;;
32874;SDS011;40468;42.128;24.750;2022-11-13T05:28:50;15.70;;;8.60;;
32874;SDS011;40468;42.128;24.750;2022-11-13T05:30:21;15.65;;;8.60;;
32874;SDS011;40468;42.128;24.750;2022-11-13T05:31:54;16.77;;;9.23;;
32874;SDS011;40468;42.128;24.750;2022-11-13T05:33:27;18.23;;;9.35;;
32874;SDS011;40468;42.128;24.750;2022-11-13T05:34:59;16.90;;;9.02;;
32874;SDS011;40468;42.128;24.750;2022-11-13T05:36:31;17.23;;;9.63;;
32874;SDS011;40468;42.128;24.750;2022-11-13T05:38:03;17.20;;;9.55;;
32874;SDS011;40468;42.128;24.750;2022-11-13T05:39:35;18.25;;;9.38;;
32874;SDS011;40468;42.128;24.750;2022-11-13T05:41:07;17.27;;;9.88;;
32874;SDS011;40468;42.128;24.750;2022-11-13T05:42:40;16.45;;;8.18;;
32874;SDS011;40468;42.128;24.750;2022-11-13T05:44:14;15.15;;;8.50;;
32874;SDS011;40468;42.128;24.750;2022-11-13T05:45:46;20.02;;;10.38;;
32874;SDS011;40468;42.128;24.750;2022-11-13T05:47:17;20.50;;;9.65;;
32874;SDS011;40468;42.128;24.750;2022-11-13T05:48:50;20.23;;;10.00;;
32874;SDS011;40468;42.128;24.750;2022-11-13T05:50:23;18.58;;;9.77;;
32874;SDS011;40468;42.128;24.750;2022-11-13T05:51:55;20.70;;;10.02;;
32874;SDS011;40468;42.128;24.750;2022-11-13T05:53:27;17.25;;;9.95;;
32874;SDS011;40468;42.128;24.750;2022-11-13T05:54:58;17.30;;;9.32;;
32874;SDS011;40468;42.128;24.750;2022-11-13T05:56:31;19.35;;;9.75;;
32874;SDS011;40468;42.128;24.750;2022-11-13T05:58:04;18.33;;;9.30;;
32874;SDS011;40468;42.128;24.750;2022-11-13T05:59:38;21.30;;;10.90;;
32874;SDS011;40468;42.128;24.750;2022-11-13T06:02:42;17.80;;;9.13;;
32874;SDS011;40468;42.128;24.750;2022-11-13T06:04:14;17.73;;;9.02;;
32874;SDS011;40468;42.128;24.750;2022-11-13T06:05:46;18.65;;;9.57;;
32874;SDS011;40468;42.128;24.750;2022-11-13T06:07:17;17.50;;;9.68;;
32874;SDS011;40468;42.128;24.750;2022-11-13T06:08:50;21.80;;;10.25;;
32874;SDS011;40468;42.128;24.750;2022-11-13T06:10:23;21.08;;;11.02;;
32874;SDS011;40468;42.128;24.750;2022-11-13T06:11:55;17.75;;;10.30;;
32874;SDS011;40468;42.128;24.750;2022-11-13T06:13:27;22.98;;;11.80;;
32874;SDS011;40468;42.128;24.750;2022-11-13T06:15:00;24.75;;;11.27;;
32874;SDS011;40468;42.128;24.750;2022-11-13T06:16:33;19.67;;;10.77;;
32874;SDS011;40468;42.128;24.750;2022-11-13T06:18:06;20.08;;;10.98;;
32874;SDS011;40468;42.128;24.750;2022-11-13T06:19:38;26.45;;;11.85;;
32874;SDS011;40468;42.128;24.750;2022-11-13T06:21:10;24.42;;;11.90;;
32874;SDS011;40468;42.128;24.750;2022-11-13T06:22:44;22.48;;;12.00;;
32874;SDS011;40468;42.128;24.750;2022-11-13T06:24:16;19.65;;;11.07;;
32874;SDS011;40468;42.128;24.750;2022-11-13T06:25:48;22.75;;;11.85;;
32874;SDS011;40468;42.128;24.750;2022-11-13T06:27:20;20.95;;;11.43;;
32874;SDS011;40468;42.128;24.750;2022-11-13T06:28:52;21.30;;;10.95;;
32874;SDS011;40468;42.128;24.750;2022-11-13T06:30:26;21.50;;;11.50;;
32874;SDS011;40468;42.128;24.750;2022-11-13T06:33:29;18.40;;;10.90;;
32874;SDS011;40468;42.128;24.750;2022-11-13T06:35:00;22.17;;;11.25;;
32874;SDS011;40468;42.128;24.750;2022-11-13T06:36:33;19.33;;;10.80;;
32874;SDS011;40468;42.128;24.750;2022-11-13T06:38:07;19.83;;;10.88;;
32874;SDS011;40468;42.128;24.750;2022-11-13T06:39:38;21.23;;;11.10;;
32874;SDS011;40468;42.128;24.750;2022-11-13T06:41:10;23.38;;;12.05;;
32874;SDS011;40468;42.128;24.750;2022-11-13T06:42:43;22.60;;;11.75;;
32874;SDS011;40468;42.128;24.750;2022-11-13T06:44:15;18.92;;;10.60;;
32874;SDS011;40468;42.128;24.750;2022-11-13T06:45:49;22.45;;;10.75;;
32874;SDS011;40468;42.128;24.750;2022-11-13T06:47:21;19.45;;;9.73;;
32874;SDS011;40468;42.128;24.750;2022-11-13T06:48:53;18.95;;;9.93;;
32874;SDS011;40468;42.128;24.750;2022-11-13T06:50:25;17.13;;;9.50;;
32874;SDS011;40468;42.128;24.750;2022-11-13T06:51:57;23.75;;;14.18;;
32874;SDS011;40468;42.128;24.750;2022-11-13T06:53:29;99.57;;;54.88;;
32874;SDS011;40468;42.128;24.750;2022-11-13T06:55:01;142.70;;;75.55;;
32874;SDS011;40468;42.128;24.750;2022-11-13T06:56:34;146.13;;;80.50;;
32874;SDS011;40468;42.128;24.750;2022-11-13T06:58:14;23.95;;;14.43;;
32874;SDS011;40468;42.128;24.750;2022-11-13T06:59:47;54.10;;;31.43;;
32874;SDS011;40468;42.128;24.750;2022-11-13T07:01:21;79.32;;;49.38;;
32874;SDS011;40468;42.128;24.750;2022-11-13T07:02:54;14.45;;;9.23;;
32874;SDS011;40468;42.128;24.750;2022-11-13T07:04:26;9.35;;;6.20;;
32874;SDS011;40468;42.128;24.750;2022-11-13T07:05:59;11.50;;;6.22;;
32874;SDS011;40468;42.128;24.750;2022-11-13T07:07:32;14.05;;;7.43;;
32874;SDS011;40468;42.128;24.750;2022-11-13T07:09:04;12.55;;;7.32;;
32874;SDS011;40468;42.128;24.750;2022-11-13T07:10:36;20.17;;;11.52;;
32874;SDS011;40468;42.128;24.750;2022-11-13T07:12:08;12.75;;;6.38;;
32874;SDS011;40468;42.128;24.750;2022-11-13T07:13:40;22.13;;;12.02;;
32874;SDS011;40468;42.128;24.750;2022-11-13T07:15:12;18.20;;;9.45;;
32874;SDS011;40468;42.128;24.750;2022-11-13T07:16:47;11.43;;;7.10;;
32874;SDS011;40468;42.128;24.750;2022-11-13T07:19:51;12.32;;;6.50;;
32874;SDS011;40468;42.128;24.750;2022-11-13T07:21:23;9.43;;;6.47;;
32874;SDS011;40468;42.128;24.750;2022-11-13T07:22:56;11.90;;;6.22;;
32874;SDS011;40468;42.128;24.750;2022-11-13T07:24:28;9.82;;;6.35;;
32874;SDS011;40468;42.128;24.750;2022-11-13T07:26:00;9.98;;;6.63;;
32874;SDS011;40468;42.128;24.750;2022-11-13T07:27:31;9.30;;;6.32;;
32874;SDS011;40468;42.128;24.750;2022-11-13T07:29:03;10.38;;;6.85;;
32874;SDS011;40468;42.128;24.750;2022-11-13T07:30:35;13.55;;;7.60;;
32874;SDS011;40468;42.128;24.750;2022-11-13T07:32:08;11.57;;;6.45;;
32874;SDS011;40468;42.128;24.750;2022-11-13T07:33:40;9.52;;;6.60;;
32874;SDS011;40468;42.128;24.750;2022-11-13T07:35:12;11.27;;;6.75;;
32874;SDS011;40468;42.128;24.750;2022-11-13T07:36:45;11.18;;;7.57;;
32874;SDS011;40468;42.128;24.750;2022-11-13T07:38:17;10.77;;;6.53;;
32874;SDS011;40468;42.128;24.750;2022-11-13T07:39:49;13.05;;;7.63;;
32874;SDS011;40468;42.128;24.750;2022-11-13T07:41:21;8.88;;;6.50;;
32874;SDS011;40468;42.128;24.750;2022-11-13T07:42:56;11.90;;;7.07;;
32874;SDS011;40468;42.128;24.750;2022-11-13T07:44:28;10.05;;;6.82;;
32874;SDS011;40468;42.128;24.750;2022-11-13T07:46:00;9.45;;;7.15;;
32874;SDS011;40468;42.128;24.750;2022-11-13T07:47:33;9.38;;;6.85;;
32874;SDS011;40468;42.128;24.750;2022-11-13T07:49:05;9.90;;;7.07;;
32874;SDS011;40468;42.128;24.750;2022-11-13T07:50:37;11.02;;;7.65;;
32874;SDS011;40468;42.128;24.750;2022-11-13T07:52:09;11.43;;;7.35;;
32874;SDS011;40468;42.128;24.750;2022-11-13T07:53:41;12.18;;;7.50;;
32874;SDS011;40468;42.128;24.750;2022-11-13T07:55:13;10.98;;;7.63;;
32874;SDS011;40468;42.128;24.750;2022-11-13T07:56:45;9.30;;;6.75;;
32874;SDS011;40468;42.128;24.750;2022-11-13T07:58:17;10.23;;;7.13;;
32874;SDS011;40468;42.128;24.750;2022-11-13T07:59:48;10.15;;;7.40;;
32874;SDS011;40468;42.128;24.750;2022-11-13T08:01:20;12.60;;;8.00;;
32874;SDS011;40468;42.128;24.750;2022-11-13T08:02:54;12.20;;;7.97;;
32874;SDS011;40468;42.128;24.750;2022-11-13T08:04:26;11.20;;;7.63;;
32874;SDS011;40468;42.128;24.750;2022-11-13T08:06:01;13.10;;;7.93;;
32874;SDS011;40468;42.128;24.750;2022-11-13T08:07:34;13.10;;;7.45;;
32874;SDS011;40468;42.128;24.750;2022-11-13T08:09:05;12.95;;;8.30;;
32874;SDS011;40468;42.128;24.750;2022-11-13T08:10:37;15.70;;;8.63;;
32874;SDS011;40468;42.128;24.750;2022-11-13T08:12:09;19.85;;;8.70;;
32874;SDS011;40468;42.128;24.750;2022-11-13T08:13:41;14.18;;;8.65;;
32874;SDS011;40468;42.128;24.750;2022-11-13T08:15:13;12.70;;;8.43;;
32874;SDS011;40468;42.128;24.750;2022-11-13T08:16:45;14.05;;;9.63;;
32874;SDS011;40468;42.128;24.750;2022-11-13T08:18:18;15.00;;;8.40;;
32874;SDS011;40468;42.128;24.750;2022-11-13T08:21:21;13.32;;;8.48;;
32874;SDS011;40468;42.128;24.750;2022-11-13T08:22:55;13.10;;;8.85;;
32874;SDS011;40468;42.128;24.750;2022-11-13T08:24:27;14.93;;;9.25;;
32874;SDS011;40468;42.128;24.750;2022-11-13T08:26:02;13.02;;;8.65;;
32874;SDS011;40468;42.128;24.750;2022-11-13T08:27:35;19.98;;;10.10;;
32874;SDS011;40468;42.128;24.750;2022-11-13T08:29:07;22.55;;;13.20;;
32874;SDS011;40468;42.128;24.750;2022-11-13T08:30:41;17.50;;;10.75;;
32874;SDS011;40468;42.128;24.750;2022-11-13T08:32:14;22.60;;;12.30;;
32874;SDS011;40468;42.128;24.750;2022-11-13T08:33:47;21.33;;;11.90;;
32874;SDS011;40468;42.128;24.750;2022-11-13T08:35:20;19.52;;;11.85;;
32874;SDS011;40468;42.128;24.750;2022-11-13T08:36:52;23.40;;;11.80;;
32874;SDS011;40468;42.128;24.750;2022-11-13T08:38:24;21.05;;;11.90;;
32874;SDS011;40468;42.128;24.750;2022-11-13T08:39:56;20.67;;;12.45;;
32874;SDS011;40468;42.128;24.750;2022-11-13T08:41:28;20.17;;;12.38;;
32874;SDS011;40468;42.128;24.750;2022-11-13T08:43:01;36.05;;;21.65;;
32874;SDS011;40468;42.128;24.750;2022-11-13T08:44:34;47.63;;;29.45;;
32874;SDS011;40468;42.128;24.750;2022-11-13T08:46:06;33.13;;;19.80;;
32874;SDS011;40468;42.128;24.750;2022-11-13T08:47:38;24.45;;;13.50;;
32874;SDS011;40468;42.128;24.750;2022-11-13T08:49:11;20.23;;;13.20;;
32874;SDS011;40468;42.128;24.750;2022-11-13T08:50:43;25.38;;;13.27;;
32874;SDS011;40468;42.128;24.750;2022-11-13T08:52:15;33.37;;;17.67;;
32874;SDS011;40468;42.128;24.750;2022-11-13T08:53:47;24.42;;;15.48;;
32874;SDS011;40468;42.128;24.750;2022-11-13T08:55:19;21.02;;;13.13;;
32874;SDS011;40468;42.128;24.750;2022-11-13T08:56:51;22.25;;;12.63;;
32874;SDS011;40468;42.128;24.750;2022-11-13T08:58:23;25.70;;;14.23;;
32874;SDS011;40468;42.128;24.750;2022-11-13T08:59:55;22.48;;;12.73;;
32874;SDS011;40468;42.128;24.750;2022-11-13T09:01:27;26.52;;;12.77;;
32874;SDS011;40468;42.128;24.750;2022-11-13T09:02:59;19.48;;;12.27;;
32874;SDS011;40468;42.128;24.750;2022-11-13T09:04:32;22.38;;;13.52;;
32874;SDS011;40468;42.128;24.750;2022-11-13T09:06:04;24.48;;;14.05;;
32874;SDS011;40468;42.128;24.750;2022-11-13T09:07:37;24.33;;;13.80;;
32874;SDS011;40468;42.128;24.750;2022-11-13T09:09:09;27.75;;;14.43;;
32874;SDS011;40468;42.128;24.750;2022-11-13T09:10:40;22.33;;;13.48;;